Time;durP1;ratioP1;P1;durP2;ratioP2;P2;SDS_P1;SDS_P2;PMS_P1;PMS_P2;Temp;Humidity;BMP_temperature;BMP_pressure;BME280_temperature;BME280_humidity;BME280_pressure;Samples;Min_cycle;Max_cycle;Signal;HPM_P1;HPM_P2
2021/08/11 00:00:32;;;;;;;91.53;9.60;;;;;;;18.30;65.33;100043.34;6037499;23;20070;-88
2021/08/11 00:02:59;;;;;;;60.10;8.23;;;;;;;18.25;65.76;100042.88;6037718;23;20034;-87
2021/08/11 00:05:26;;;;;;;56.28;8.98;;;;;;;18.20;65.45;100041.47;6038152;23;20369;-81
2021/08/11 00:07:55;;;;;;;8.98;8.05;;;;;;;18.14;66.03;100036.66;6039792;23;20495;-81
2021/08/11 00:10:22;;;;;;;9.55;7.85;;;;;;;18.12;65.55;100043.94;6068039;23;20023;-82
2021/08/11 00:12:59;;;;;;;10.93;8.73;;;;;;;18.05;66.45;100042.75;6042762;23;20058;-82
2021/08/11 00:15:25;;;;;;;9.25;8.18;;;;;;;18.07;65.75;100041.63;6043291;23;20143;-82
2021/08/11 00:17:53;;;;;;;10.02;8.45;;;;;;;18.05;65.59;100043.56;6043231;23;20114;-82
2021/08/11 00:20:22;;;;;;;9.65;7.13;;;;;;;18.04;65.40;100036.56;6043119;23;20674;-81
2021/08/11 00:22:51;;;;;;;9.00;7.57;;;;;;;18.02;65.79;100038.50;6043207;23;20054;-81
2021/08/11 00:25:19;;;;;;;9.40;7.80;;;;;;;18.03;65.55;100042.00;6042747;23;20034;-82
2021/08/11 00:27:48;;;;;;;8.68;6.85;;;;;;;18.01;65.80;100036.81;6042756;23;20098;-82
2021/08/11 00:30:15;;;;;;;8.82;7.15;;;;;;;18.01;65.49;100039.47;6042896;23;20062;-82
2021/08/11 00:32:44;;;;;;;11.00;7.47;;;;;;;18.00;65.33;100034.28;6043298;23;20403;-81
2021/08/11 00:35:11;;;;;;;10.75;7.75;;;;;;;18.00;65.20;100045.78;6067891;23;20078;-82
2021/08/11 00:37:39;;;;;;;11.45;8.15;;;;;;;17.99;64.99;100041.44;6043270;23;20424;-81
2021/08/11 00:40:06;;;;;;;10.77;7.75;;;;;;;17.99;64.87;100044.09;6043080;23;20102;-81
2021/08/11 00:42:34;;;;;;;8.90;7.28;;;;;;;17.98;65.32;100042.38;6068257;23;20390;-82
2021/08/11 00:45:03;;;;;;;13.13;7.40;;;;;;;17.98;65.07;100047.72;6042968;23;20081;-82
2021/08/11 00:47:35;;;;;;;10.77;7.72;;;;;;;17.97;65.57;100049.56;6043157;23;20065;-82
2021/08/11 00:50:05;;;;;;;10.50;7.75;;;;;;;17.97;65.56;100046.03;6043324;23;20467;-82
2021/08/11 00:52:31;;;;;;;11.93;8.63;;;;;;;17.97;65.09;100046.88;6042500;23;20090;-87
2021/08/11 00:55:00;;;;;;;11.02;8.05;;;;;;;17.98;65.33;100048.56;6042078;23;20105;-87
2021/08/11 00:57:27;;;;;;;9.82;8.77;;;;;;;17.99;65.31;100054.75;6067372;23;20030;-88
2021/08/11 00:59:57;;;;;;;13.38;9.75;;;;;;;17.98;65.78;100047.72;6043929;23;20113;-88
2021/08/11 01:02:29;;;;;;;12.48;9.10;;;;;;;17.96;66.39;100050.53;6044516;23;20026;-82
2021/08/11 01:04:58;;;;;;;13.80;9.77;;;;;;;17.98;65.72;100053.91;6044371;23;20105;-88
2021/08/11 01:07:27;;;;;;;12.80;8.90;;;;;;;17.99;65.58;100049.44;6043825;23;20050;-88
2021/08/11 01:09:55;;;;;;;12.77;9.00;;;;;;;18.00;65.22;100052.91;6039290;23;20063;-82
2021/08/11 01:12:27;;;;;;;9.60;8.63;;;;;;;17.97;65.85;100052.22;6039426;23;20059;-82
2021/08/11 01:14:54;;;;;;;13.18;9.55;;;;;;;17.98;65.64;100050.38;6041106;23;20055;-82
2021/08/11 01:17:24;;;;;;;9.27;8.13;;;;;;;17.96;65.45;100050.53;6039394;23;20027;-82
2021/08/11 01:19:52;;;;;;;11.98;9.93;;;;;;;17.94;65.48;100047.13;6039393;23;20066;-82
2021/08/11 01:22:24;;;;;;;11.98;8.50;;;;;;;17.92;66.08;100054.41;6039350;23;20106;-82
2021/08/11 01:25:01;;;;;;;11.85;9.73;;;;;;;17.92;66.02;100061.56;6039222;23;20098;-81
2021/08/11 01:27:56;;;;;;;9.25;8.25;;;;;;;17.90;66.11;100056.34;6040316;23;20482;-88
2021/08/11 01:30:33;;;;;;;10.32;8.65;;;;;;;17.89;65.99;100053.81;6038906;23;20102;-87
2021/08/11 01:33:44;;;;;;;12.45;9.23;;;;;;;17.84;66.22;100057.69;6039454;23;20398;-82
2021/08/11 01:36:20;;;;;;;12.07;9.57;;;;;;;17.86;65.78;100060.25;5958661;24;20024;-82
2021/08/11 01:38:54;;;;;;;11.63;9.18;;;;;;;17.83;65.70;100056.03;5958585;24;20058;-82
2021/08/11 01:41:29;;;;;;;16.13;10.65;;;;;;;17.80;66.17;100061.59;5849651;24;20100;-81
2021/08/11 01:44:06;;;;;;;13.07;10.27;;;;;;;17.77;66.15;100056.53;5765662;24;20066;-82
2021/08/11 01:46:37;;;;;;;15.25;10.63;;;;;;;17.77;65.96;100061.88;5765635;24;20082;-81
2021/08/11 01:49:09;;;;;;;12.25;10.45;;;;;;;17.75;66.19;100061.13;5765940;24;20023;-82
2021/08/11 01:51:38;;;;;;;14.20;10.50;;;;;;;17.74;66.02;100064.78;5765682;24;20102;-82
2021/08/11 01:54:08;;;;;;;11.45;9.65;;;;;;;17.70;66.40;100053.53;5795894;24;20113;-82
2021/08/11 01:56:38;;;;;;;19.23;8.07;;;;;;;17.68;66.18;100063.47;5822960;24;20058;-82
2021/08/11 01:59:08;;;;;;;132.27;9.90;;;;;;;17.64;66.52;100061.19;5857243;24;20052;-82
2021/08/11 02:01:39;;;;;;;92.90;10.02;;;;;;;17.58;66.94;100057.22;5958547;23;20432;-82
2021/08/11 02:04:08;;;;;;;54.75;9.32;;;;;;;17.55;66.34;100052.97;6039292;23;20031;-82
2021/08/11 02:06:36;;;;;;;102.55;9.77;;;;;;;17.50;66.43;100060.50;6040379;23;20105;-82
2021/08/11 02:09:11;;;;;;;61.00;8.45;;;;;;;17.44;67.08;100053.00;6043554;23;20057;-81
2021/08/11 02:11:41;;;;;;;32.38;7.88;;;;;;;17.43;66.33;100051.31;6038735;23;20106;-82
2021/08/11 02:14:12;;;;;;;25.45;9.55;;;;;;;17.37;67.39;100051.81;6039066;23;20371;-82
2021/08/11 02:16:40;;;;;;;16.33;10.07;;;;;;;17.36;66.95;100044.78;6038881;23;20028;-82
2021/08/11 02:19:10;;;;;;;11.02;9.35;;;;;;;17.32;67.18;100050.38;6038878;23;20095;-82
2021/08/11 02:21:41;;;;;;;10.27;8.98;;;;;;;17.30;67.12;100046.13;6039423;23;20102;-82
2021/08/11 02:24:10;;;;;;;10.88;8.77;;;;;;;17.29;66.79;100050.63;6038824;23;20110;-81
2021/08/11 02:26:40;;;;;;;9.70;8.70;;;;;;;17.28;67.47;100050.75;6039202;23;20094;-81
2021/08/11 02:30:02;;;;;;;14.98;10.07;;;;;;;17.23;67.94;100047.63;6038716;23;20030;-82
2021/08/11 02:35:28;;;;;;;18.08;10.05;;;;;;;17.23;67.21;100050.28;6039962;23;20062;-81
2021/08/11 02:38:05;;;;;;;10.57;9.48;;;;;;;17.18;67.69;100045.31;6038885;23;20102;-81
2021/08/11 02:40:43;;;;;;;11.57;9.38;;;;;;;17.15;67.95;100050.88;6039288;23;20398;-81
2021/08/11 02:43:23;;;;;;;12.50;10.05;;;;;;;17.12;68.09;100051.97;6038997;23;20396;-81
2021/08/11 02:45:58;;;;;;;13.35;10.85;;;;;;;17.11;68.10;100055.59;6038668;23;20085;-82
2021/08/11 02:48:28;;;;;;;11.43;9.68;;;;;;;17.11;67.48;100057.41;6039613;23;20019;-82
2021/08/11 02:50:58;;;;;;;11.85;10.23;;;;;;;17.08;67.58;100055.03;6038056;23;20439;-81
2021/08/11 02:53:27;;;;;;;12.07;10.50;;;;;;;17.05;67.87;100056.94;6038471;23;20058;-81
2021/08/11 02:55:55;;;;;;;12.10;10.65;;;;;;;17.05;67.65;100056.94;6040429;23;20058;-81
2021/08/11 02:58:22;;;;;;;12.88;10.68;;;;;;;17.06;67.69;100052.47;6039076;23;20046;-81
2021/08/11 03:00:53;;;;;;;12.27;10.52;;;;;;;17.06;68.16;100052.47;6039077;23;20350;-81
2021/08/11 03:03:21;;;;;;;11.70;10.50;;;;;;;17.08;67.72;100055.03;6038876;23;20059;-82
2021/08/11 03:05:58;;;;;;;12.40;10.77;;;;;;;17.05;68.58;100053.44;6038351;23;20027;-82
2021/08/11 03:08:27;;;;;;;15.70;10.35;;;;;;;17.09;67.63;100052.25;6038107;23;20054;-82
2021/08/11 03:10:53;;;;;;;14.50;11.35;;;;;;;17.10;67.68;100055.72;6038427;23;20098;-82
2021/08/11 03:13:35;;;;;;;12.20;10.65;;;;;;;17.05;68.56;100062.25;6038403;23;20094;-82
2021/08/11 03:16:02;;;;;;;12.63;11.23;;;;;;;17.10;67.61;100056.59;6038660;23;20451;-82
2021/08/11 03:18:33;;;;;;;13.30;11.80;;;;;;;17.07;68.23;100054.16;6038720;23;20023;-82
2021/08/11 03:21:03;;;;;;;13.43;11.90;;;;;;;17.07;68.33;100054.16;6039937;23;20404;-82
2021/08/11 03:23:30;;;;;;;13.88;12.30;;;;;;;17.08;67.79;100057.69;6039907;23;20077;-82
2021/08/11 03:25:59;;;;;;;17.05;13.38;;;;;;;17.06;68.29;100053.34;6038155;23;20519;-82
2021/08/11 03:28:26;;;;;;;18.35;14.82;;;;;;;17.06;67.89;100052.47;6038140;23;20018;-82
2021/08/11 03:30:59;;;;;;;15.25;13.25;;;;;;;17.04;68.96;100057.03;6038766;23;20102;-82
2021/08/11 03:33:25;;;;;;;;;;;;;;;17.04;68.37;100060.56;6039135;23;20065;-82
2021/08/11 03:35:53;;;;;;;16.42;12.45;;;;;;;17.06;67.54;100057.78;6037919;23;20354;-82
2021/08/11 03:38:20;;;;;;;17.52;13.23;;;;;;;17.02;67.77;100064.28;6038245;23;20099;-82
2021/08/11 03:40:48;;;;;;;15.93;12.52;;;;;;;16.98;68.02;100060.19;6039764;23;20045;-82
2021/08/11 03:43:14;;;;;;;116.28;12.35;;;;;;;16.94;67.95;100055.09;6038598;23;20058;-81
2021/08/11 03:45:43;;;;;;;85.00;11.15;;;;;;;16.91;67.90;100062.47;6038423;23;20027;-81
2021/08/11 03:48:10;;;;;;;116.57;11.40;;;;;;;16.88;67.82;100054.75;6038572;23;20027;-87
2021/08/11 03:50:40;;;;;;;81.60;8.88;;;;;;;16.84;68.12;100058.59;6037922;23;20509;-87
2021/08/11 03:53:07;;;;;;;69.78;7.68;;;;;;;16.84;67.65;100063.91;6037503;23;20019;-83
2021/08/11 03:55:34;;;;;;;89.38;7.63;;;;;;;16.82;67.60;100060.56;6038195;23;20492;-82
2021/08/11 03:58:01;;;;;;;41.03;7.00;;;;;;;16.79;67.53;100067.78;6038178;23;20055;-82
2021/08/11 04:00:30;;;;;;;30.92;7.38;;;;;;;16.77;67.68;100067.06;6037953;23;20105;-82
2021/08/11 04:02:57;;;;;;;7.72;6.82;;;;;;;16.76;67.36;100062.72;6038006;23;20023;-82
2021/08/11 04:05:25;;;;;;;27.33;6.90;;;;;;;16.73;67.43;100060.31;6038101;23;20102;-82
2021/08/11 04:07:52;;;;;;;16.77;6.32;;;;;;;16.72;67.08;100061.28;6038520;23;20406;-81
2021/08/11 04:10:19;;;;;;;10.38;5.70;;;;;;;16.68;66.98;100059.81;6041497;23;20057;-81
2021/08/11 04:12:46;;;;;;;9.88;5.75;;;;;;;16.64;66.95;100064.50;6038191;23;20062;-81
2021/08/11 04:15:39;;;;;;;6.60;6.00;;;;;;;16.55;67.80;100065.22;6038117;23;20024;-81
2021/08/11 04:18:06;;;;;;;20.60;5.67;;;;;;;16.56;67.11;100066.09;6038476;23;20474;-81
2021/08/11 04:20:38;;;;;;;39.55;5.88;;;;;;;16.50;67.74;100073.56;6038392;23;20298;-81
2021/08/11 04:23:06;;;;;;;6.00;5.03;;;;;;;16.49;67.31;100068.38;6038046;23;20098;-81
2021/08/11 04:25:37;;;;;;;5.55;5.05;;;;;;;16.45;67.51;100065.09;6039915;23;20474;-81
2021/08/11 04:28:04;;;;;;;5.47;4.75;;;;;;;16.45;67.32;100064.25;6038124;23;20094;-81
2021/08/11 04:30:31;;;;;;;5.53;5.03;;;;;;;16.45;67.54;100073.06;6039297;23;20098;-81
2021/08/11 04:32:57;;;;;;;5.28;4.78;;;;;;;16.46;67.35;100076.56;6038454;23;20103;-81
2021/08/11 04:35:24;;;;;;;6.82;4.65;;;;;;;16.45;67.31;100073.06;6040168;23;20054;-81
2021/08/11 04:37:51;;;;;;;5.55;5.05;;;;;;;16.47;67.42;100075.59;6040325;23;20107;-81
2021/08/11 04:40:18;;;;;;;5.35;4.85;;;;;;;16.49;67.40;100076.34;6040406;23;20085;-81
2021/08/11 04:42:45;;;;;;;7.35;4.93;;;;;;;16.50;67.55;100083.34;6039843;23;20102;-81
2021/08/11 04:45:12;;;;;;;5.90;4.65;;;;;;;16.52;67.56;100082.25;6040248;23;20395;-81
2021/08/11 04:47:40;;;;;;;5.97;4.55;;;;;;;16.53;67.64;100083.94;6039542;23;20058;-81
2021/08/11 04:50:11;;;;;;;6.22;4.72;;;;;;;16.57;67.50;100081.94;6040221;23;20115;-81
2021/08/11 04:52:38;;;;;;;5.68;4.78;;;;;;;16.60;67.54;100078.19;6041095;23;20063;-81
2021/08/11 04:55:06;;;;;;;5.07;4.63;;;;;;;16.62;67.64;100078.91;6039586;23;20034;-82
2021/08/11 04:57:33;;;;;;;10.63;4.50;;;;;;;16.64;67.61;100083.13;6039586;23;20069;-82
2021/08/11 05:00:01;;;;;;;17.30;4.57;;;;;;;16.68;67.50;100084.56;6039740;23;20067;-82
2021/08/11 05:02:27;;;;;;;19.40;4.68;;;;;;;16.71;67.61;100080.00;6039564;23;20079;-82
2021/08/11 05:05:06;;;;;;;16.00;5.10;;;;;;;16.71;68.22;100091.47;6039365;23;20031;-87
2021/08/11 05:07:33;;;;;;;11.68;4.28;;;;;;;16.79;67.46;100088.22;6039340;23;20336;-87
2021/08/11 05:10:07;;;;;;;10.38;5.05;;;;;;;16.78;67.66;100091.84;6038995;23;20059;-87
2021/08/11 05:12:34;;;;;;;43.40;4.85;;;;;;;16.84;67.40;100087.84;6038890;23;20062;-87
2021/08/11 05:15:11;;;;;;;18.38;4.93;;;;;;;16.82;68.11;100092.47;6040510;23;20063;-87
2021/08/11 05:17:38;;;;;;;7.68;4.45;;;;;;;16.88;67.57;100092.81;6039579;23;20057;-87
2021/08/11 05:20:05;;;;;;;8.95;5.22;;;;;;;16.90;67.73;100093.53;6039041;23;20066;-87
2021/08/11 05:22:32;;;;;;;9.20;4.57;;;;;;;16.93;67.44;100089.78;6038848;23;20062;-87
2021/08/11 05:25:05;;;;;;;11.90;5.93;;;;;;;16.94;67.78;100095.00;6038771;23;20063;-87
2021/08/11 05:27:32;;;;;;;13.02;5.45;;;;;;;16.99;67.50;100099.09;6040371;23;20102;-87
2021/08/11 05:30:00;;;;;;;9.57;6.43;;;;;;;17.00;67.66;100100.78;6039233;23;20027;-87
2021/08/11 05:32:27;;;;;;;14.52;5.75;;;;;;;17.01;67.58;100103.31;6038946;23;20027;-87
2021/08/11 05:34:55;;;;;;;34.70;6.68;;;;;;;17.03;67.72;100100.56;6038504;23;20074;-87
2021/08/11 05:37:22;;;;;;;33.50;6.05;;;;;;;17.05;67.45;100104.81;6039182;23;20105;-87
2021/08/11 05:39:48;;;;;;;36.92;6.78;;;;;;;17.06;67.45;100101.19;6040306;23;20098;-87
2021/08/11 05:42:15;;;;;;;34.80;7.10;;;;;;;17.06;67.66;100111.84;6040543;23;20502;-88
2021/08/11 05:44:43;;;;;;;67.03;7.60;;;;;;;17.06;67.66;100111.84;6038111;23;20519;-87
2021/08/11 05:47:11;;;;;;;42.78;6.15;;;;;;;17.06;67.62;100114.50;6040209;23;20039;-79
2021/08/11 05:49:38;;;;;;;51.63;7.07;;;;;;;17.06;67.69;100117.16;6039054;23;20098;-79
2021/08/11 05:52:05;;;;;;;70.90;7.60;;;;;;;17.07;67.84;100118.00;6039153;23;20058;-79
2021/08/11 05:54:39;;;;;;;102.72;8.25;;;;;;;17.06;68.28;100117.16;6038987;23;20027;-79
2021/08/11 05:57:08;;;;;;;59.28;8.32;;;;;;;17.08;67.90;100125.00;6039213;23;20354;-79
2021/08/11 05:59:36;;;;;;;52.90;7.88;;;;;;;17.09;67.95;100123.19;6039316;23;20095;-80
2021/08/11 06:02:03;;;;;;;180.27;11.65;;;;;;;17.07;68.05;100125.97;6038938;23;20058;-80
2021/08/11 06:04:43;;;;;;;43.60;6.55;;;;;;;17.03;69.17;100124.47;6039061;23;20507;-79
2021/08/11 06:07:10;;;;;;;224.25;13.55;;;;;;;17.05;68.56;100127.91;6038960;23;20071;-79
2021/08/11 06:09:42;;;;;;;147.02;8.60;;;;;;;17.05;69.40;100135.91;6039272;23;20094;-79
2021/08/11 06:12:09;;;;;;;190.23;11.10;;;;;;;17.07;69.07;100144.59;6038541;23;20033;-80
2021/08/11 06:14:35;;;;;;;161.00;11.82;;;;;;;17.09;69.08;100141.81;6038560;23;20062;-79
2021/08/11 06:17:03;;;;;;;70.22;7.45;;;;;;;17.11;69.41;100146.03;6039309;23;20075;-79
2021/08/11 06:19:30;;;;;;;142.85;11.77;;;;;;;17.15;69.67;100141.31;6040505;23;20023;-80
2021/08/11 06:21:56;;;;;;;153.90;10.40;;;;;;;17.19;69.49;100151.59;6038913;23;20031;-80
2021/08/11 06:24:23;;;;;;;111.93;9.88;;;;;;;17.25;69.73;100152.94;6038818;23;20463;-80
2021/08/11 06:26:50;;;;;;;135.88;12.10;;;;;;;17.31;69.87;100157.75;6038756;23;20055;-79
2021/08/11 06:29:16;;;;;;;71.90;8.43;;;;;;;17.36;69.88;100157.41;6039800;23;20051;-81
2021/08/11 06:31:43;;;;;;;89.18;10.35;;;;;;;17.43;69.81;100160.44;6038863;23;20134;-81
2021/08/11 06:34:10;;;;;;;103.90;10.82;;;;;;;17.48;69.48;100162.69;6038150;23;20494;-87
2021/08/11 06:36:37;;;;;;;111.15;11.30;;;;;;;17.51;69.48;100160.66;6039694;23;20102;-88
2021/08/11 06:39:04;;;;;;;71.03;10.35;;;;;;;17.54;69.61;100160.41;6039505;23;20098;-81
2021/08/11 06:41:31;;;;;;;71.05;10.57;;;;;;;17.57;69.68;100162.81;6038355;23;20098;-81
2021/08/11 06:43:58;;;;;;;39.90;10.10;;;;;;;17.61;69.70;100165.25;6038152;23;20062;-87
2021/08/11 06:46:30;;;;;;;50.17;10.73;;;;;;;17.63;70.67;100171.28;6038089;23;20051;-87
2021/08/11 06:48:57;;;;;;;142.90;14.23;;;;;;;17.70;69.78;100161.84;6038114;23;20030;-87
2021/08/11 06:51:28;;;;;;;75.53;10.85;;;;;;;17.72;70.24;100165.25;6038404;23;20153;-87
2021/08/11 06:53:55;;;;;;;46.38;10.82;;;;;;;17.79;69.96;100165.59;6037978;23;20118;-87
2021/08/11 06:56:23;;;;;;;102.00;12.70;;;;;;;17.83;69.70;100167.03;6039650;23;20055;-87
2021/08/11 06:58:49;;;;;;;100.45;13.40;;;;;;;17.89;70.01;100176.31;6038043;23;20102;-87
2021/08/11 07:01:32;;;;;;;88.10;11.57;;;;;;;17.93;70.71;100161.78;6039528;23;20063;-87
2021/08/11 07:03:59;;;;;;;45.47;11.00;;;;;;;18.04;70.25;100164.41;6038206;23;20056;-87
2021/08/11 07:06:27;;;;;;;56.60;12.07;;;;;;;18.13;70.29;100170.00;6039874;23;20506;-88
2021/08/11 07:08:56;;;;;;;15.85;12.95;;;;;;;18.21;69.91;100176.38;6038113;23;20114;-87
2021/08/11 07:11:23;;;;;;;13.23;10.95;;;;;;;18.29;69.58;100172.22;6037861;23;20055;-87
2021/08/11 07:13:50;;;;;;;16.25;11.93;;;;;;;18.35;69.95;100172.56;6037621;23;20134;-87
2021/08/11 07:16:18;;;;;;;14.13;11.75;;;;;;;18.42;69.76;100172.03;6037941;23;20060;-88
2021/08/11 07:18:45;;;;;;;15.52;11.85;;;;;;;18.52;69.71;100188.09;6038489;23;20040;-87
2021/08/11 07:21:11;;;;;;;16.77;13.95;;;;;;;18.57;69.09;100181.41;6037919;23;20057;-81
2021/08/11 07:23:38;;;;;;;15.73;13.43;;;;;;;18.63;68.90;100190.72;6037837;23;20152;-81
2021/08/11 07:26:08;;;;;;;16.25;13.10;;;;;;;18.66;68.53;100192.28;6037853;23;20297;-81
2021/08/11 07:28:35;;;;;;;17.63;14.35;;;;;;;18.69;68.23;100194.69;6037960;23;20102;-88
2021/08/11 07:31:03;;;;;;;17.33;14.00;;;;;;;18.69;68.25;100190.19;6037714;23;20111;-81
2021/08/11 07:33:29;;;;;;;18.77;14.95;;;;;;;18.70;68.44;100193.72;6038297;23;20033;-81
2021/08/11 07:36:00;;;;;;;19.08;15.05;;;;;;;18.69;68.52;100192.03;6038084;23;20126;-80
2021/08/11 07:38:27;;;;;;;19.58;15.25;;;;;;;18.69;68.39;100190.19;6037912;23;20069;-81
2021/08/11 07:40:57;;;;;;;20.80;15.77;;;;;;;18.70;68.62;100191.06;6037891;23;20042;-87
2021/08/11 07:43:23;;;;;;;24.38;16.20;;;;;;;18.71;68.19;100192.75;6037782;23;20098;-87
2021/08/11 07:45:52;;;;;;;20.88;17.15;;;;;;;18.71;68.59;100192.75;6037764;23;20406;-81
2021/08/11 07:48:33;;;;;;;20.10;15.73;;;;;;;18.72;68.23;100189.94;6038482;23;20023;-81
2021/08/11 07:51:03;;;;;;;22.70;15.80;;;;;;;18.72;68.26;100191.75;6038342;23;20246;-80
2021/08/11 07:53:30;;;;;;;22.65;15.55;;;;;;;18.73;68.03;100194.28;6038163;23;20027;-80
2021/08/11 07:56:02;;;;;;;16.88;13.98;;;;;;;18.73;68.54;100201.47;6039985;23;20109;-81
2021/08/11 07:58:29;;;;;;;17.80;14.57;;;;;;;18.77;68.41;100205.56;6038216;23;20394;-81
2021/08/11 08:00:59;;;;;;;17.70;15.20;;;;;;;18.79;68.75;100200.94;6037766;23;20098;-81
2021/08/11 08:03:26;;;;;;;19.30;16.25;;;;;;;18.83;68.37;100201.50;6038497;23;20027;-80
2021/08/11 08:05:54;;;;;;;23.55;16.13;;;;;;;18.87;68.49;100197.59;6038512;23;20027;-80
2021/08/11 08:08:20;;;;;;;19.05;16.52;;;;;;;18.91;68.62;100203.53;6037536;23;20101;-80
2021/08/11 08:10:52;;;;;;;21.63;16.20;;;;;;;18.96;68.89;100209.31;6041203;23;20035;-81
2021/08/11 08:13:21;;;;;;;22.33;16.08;;;;;;;19.02;69.12;100206.97;6037614;23;20079;-87
2021/08/11 08:15:49;;;;;;;21.88;16.38;;;;;;;19.11;68.87;100215.19;6037336;23;20035;-87
2021/08/11 08:18:22;;;;;;;15.65;14.02;;;;;;;19.19;68.58;100215.41;6038386;23;20082;-80
2021/08/11 08:20:56;;;;;;;;;;;;;;;19.24;68.76;100209.63;6038952;23;20102;-80
2021/08/11 08:23:23;;;;;;;15.65;12.80;;;;;;;19.39;68.39;100208.31;6038198;23;20361;-81
2021/08/11 08:25:50;;;;;;;19.13;15.00;;;;;;;19.50;68.68;100209.19;6037280;23;20065;-81
2021/08/11 08:28:17;;;;;;;15.32;13.25;;;;;;;19.59;68.86;100202.22;6037476;23;20029;-86
2021/08/11 08:30:46;;;;;;;16.40;13.68;;;;;;;19.68;68.05;100214.75;6037721;23;20384;-87
2021/08/11 08:33:13;;;;;;;18.02;15.13;;;;;;;19.80;68.46;100212.81;6038238;23;20053;-80
2021/08/11 08:35:40;;;;;;;15.15;13.48;;;;;;;19.92;68.09;100213.53;6038009;23;20050;-80
2021/08/11 08:38:07;;;;;;;13.05;11.65;;;;;;;20.04;67.80;100217.81;6038197;23;20351;-81
2021/08/11 08:40:39;;;;;;;14.05;11.05;;;;;;;20.14;67.16;100223.16;6037641;23;20514;-81
2021/08/11 08:43:06;;;;;;;14.30;12.32;;;;;;;20.28;67.28;100221.06;6037461;23;20058;-87
2021/08/11 08:45:34;;;;;;;16.20;11.50;;;;;;;20.39;66.86;100223.63;6037301;23;20062;-87
2021/08/11 08:48:04;;;;;;;14.60;12.10;;;;;;;20.50;66.50;100217.28;6037787;23;20443;-86
2021/08/11 08:50:34;;;;;;;14.73;12.23;;;;;;;20.59;66.29;100226.28;6037429;23;20027;-87
2021/08/11 08:53:03;;;;;;;14.15;11.95;;;;;;;20.69;65.92;100218.25;6037810;23;20023;-81
2021/08/11 08:55:32;;;;;;;16.20;11.55;;;;;;;20.80;66.24;100218.09;6037407;23;20085;-81
2021/08/11 08:58:00;;;;;;;13.52;10.73;;;;;;;20.90;66.21;100212.75;6038051;23;20058;-80
2021/08/11 09:00:29;;;;;;;15.15;12.02;;;;;;;21.01;66.27;100211.75;6039460;23;20095;-80
2021/08/11 09:02:56;;;;;;;13.63;11.48;;;;;;;21.13;65.64;100217.78;6039518;23;20028;-80
2021/08/11 09:05:36;;;;;;;13.15;10.73;;;;;;;21.21;65.15;100217.91;6038386;23;20062;-80
2021/08/11 09:08:03;;;;;;;16.83;10.70;;;;;;;21.35;64.57;100226.44;6038033;23;20058;-80
2021/08/11 09:10:31;;;;;;;15.20;11.00;;;;;;;21.39;64.24;100217.13;6037940;23;20019;-80
2021/08/11 09:13:08;;;;;;;12.35;9.85;;;;;;;21.48;64.02;100224.28;6037926;23;20034;-80
2021/08/11 09:15:42;;;;;;;13.32;9.90;;;;;;;21.55;63.91;100215.63;6037690;23;20034;-80
2021/08/11 09:18:18;;;;;;;14.05;10.23;;;;;;;21.61;63.99;100223.09;6037002;23;20062;-80
2021/08/11 09:20:50;;;;;;;11.65;9.90;;;;;;;21.70;64.18;100219.53;6038836;23;20090;-80
2021/08/11 09:23:36;;;;;;;10.37;9.23;;;;;;;21.79;63.99;100228.53;6039583;23;20094;-80
2021/08/11 09:26:06;;;;;;;12.60;10.15;;;;;;;21.95;64.52;100224.34;6039611;23;20059;-80
2021/08/11 09:28:37;;;;;;;10.60;9.10;;;;;;;22.08;63.96;100222.16;6039974;23;20403;-80
2021/08/11 09:31:32;;;;;;;11.57;8.88;;;;;;;22.22;62.93;100226.16;6039360;23;20072;-80
2021/08/11 09:34:06;;;;;;;12.52;9.05;;;;;;;22.40;62.93;100228.00;5977316;23;20094;-81
2021/08/11 09:36:40;;;;;;;10.52;9.13;;;;;;;22.55;62.44;100227.47;6032992;23;20107;-81
2021/08/11 09:39:07;;;;;;;9.35;8.35;;;;;;;22.71;62.77;100221.38;6039432;23;20465;-81
2021/08/11 09:41:59;;;;;;;14.77;9.73;;;;;;;22.81;61.65;100224.84;6039554;23;20131;-81
2021/08/11 09:44:39;;;;;;;12.48;11.18;;;;;;;22.96;61.67;100219.75;6039281;23;20510;-82
2021/08/11 09:47:14;;;;;;;14.93;10.35;;;;;;;23.09;61.57;100222.00;6039598;23;20031;-81
2021/08/11 09:49:59;;;;;;;16.77;11.60;;;;;;;23.23;61.40;100225.94;6039013;23;20023;-81
2021/08/11 09:52:26;;;;;;;13.27;11.73;;;;;;;23.36;61.59;100232.75;6039211;23;20102;-81
2021/08/11 09:55:02;;;;;;;15.82;11.95;;;;;;;23.43;60.61;100236.47;6038529;23;20102;-81
2021/08/11 09:57:29;;;;;;;10.40;9.23;;;;;;;23.55;60.11;100235.19;6040334;23;20066;-81
2021/08/11 09:59:57;;;;;;;12.02;8.52;;;;;;;23.63;59.21;100236.22;6038778;23;20055;-81
2021/08/11 10:02:25;;;;;;;11.23;9.38;;;;;;;23.69;60.27;100228.38;6038903;23;20031;-81
2021/08/11 10:04:53;;;;;;;9.35;8.32;;;;;;;23.76;60.00;100233.06;6038441;23;20031;-81
2021/08/11 10:07:20;;;;;;;12.27;10.43;;;;;;;23.86;58.76;100227.56;6038929;23;20462;-81
2021/08/11 10:10:01;;;;;;;12.68;10.70;;;;;;;23.91;57.92;100231.47;6038512;23;20055;-82
2021/08/11 10:12:29;;;;;;;12.45;9.23;;;;;;;24.04;58.39;100232.84;6038457;23;20024;-81
2021/08/11 10:15:02;;;;;;;10.63;9.07;;;;;;;24.09;58.36;100227.81;6038683;23;20031;-81
2021/08/11 10:17:31;;;;;;;9.07;8.13;;;;;;;24.21;57.99;100236.44;6038905;23;20408;-81
2021/08/11 10:19:58;;;;;;;11.30;9.45;;;;;;;24.30;58.69;100232.75;6038525;23;20107;-81
2021/08/11 10:22:30;;;;;;;11.00;9.95;;;;;;;24.38;56.72;100229.22;6039187;23;20352;-80
2021/08/11 10:25:01;;;;;;;10.25;7.95;;;;;;;24.52;57.78;100224.19;6039747;23;20038;-81
2021/08/11 10:27:34;;;;;;;12.57;9.45;;;;;;;24.59;57.39;100234.09;6040363;23;20046;-80
2021/08/11 10:30:01;;;;;;;11.23;9.52;;;;;;;24.70;57.79;100232.06;6038424;23;20102;-80
2021/08/11 10:32:28;;;;;;;11.25;10.05;;;;;;;24.78;57.29;100232.06;6038512;23;20102;-80
2021/08/11 10:34:57;;;;;;;10.18;9.18;;;;;;;24.82;56.15;100230.72;6038802;23;20090;-81
2021/08/11 10:37:25;;;;;;;9.93;8.65;;;;;;;24.85;55.44;100227.72;6038607;23;20074;-81
2021/08/11 10:39:52;;;;;;;9.95;8.43;;;;;;;24.86;55.48;100236.66;6040028;23;20027;-81
2021/08/11 10:42:31;;;;;;;10.18;9.18;;;;;;;24.79;55.09;100239.16;6038358;23;20061;-81
2021/08/11 10:44:59;;;;;;;9.15;8.20;;;;;;;24.83;55.34;100253.97;6038182;23;20102;-81
2021/08/11 10:47:35;;;;;;;9.63;8.63;;;;;;;24.78;55.89;100250.91;6038917;23;20038;-81
2021/08/11 10:50:06;;;;;;;11.55;8.88;;;;;;;24.83;55.86;100251.28;6038360;23;20062;-81
2021/08/11 10:52:34;;;;;;;10.80;9.57;;;;;;;24.93;56.01;100255.66;6038891;23;20059;-81
2021/08/11 10:55:04;;;;;;;10.20;9.27;;;;;;;25.05;55.93;100259.69;6038508;23;20027;-80
2021/08/11 10:57:38;;;;;;;11.68;10.23;;;;;;;25.21;55.40;100247.19;6038869;23;20066;-81
2021/08/11 11:00:07;;;;;;;15.00;10.38;;;;;;;25.46;56.99;100249.84;6038166;23;20030;-81
2021/08/11 11:02:40;;;;;;;10.82;9.73;;;;;;;25.75;55.51;100262.72;6038595;23;20110;-81
2021/08/11 11:05:19;;;;;;;11.57;10.45;;;;;;;26.18;55.90;100255.25;6038270;23;20530;-81
2021/08/11 11:08:08;;;;;;;10.25;9.20;;;;;;;26.71;55.14;100259.94;6038234;23;20106;-81
2021/08/11 11:10:36;;;;;;;11.07;9.82;;;;;;;27.31;56.05;100254.66;6037907;23;20024;-81
2021/08/11 11:13:33;;;;;;;10.57;9.57;;;;;;;27.90;54.41;100252.97;6038210;23;20478;-80
2021/08/11 11:16:03;;;;;;;10.32;9.32;;;;;;;28.49;52.77;100261.94;6038854;23;20342;-80
2021/08/11 11:18:30;;;;;;;9.40;8.48;;;;;;;28.82;49.75;100254.31;6038882;23;20119;-80
2021/08/11 11:20:57;;;;;;;7.40;6.78;;;;;;;29.05;51.01;100255.97;6038282;23;20028;-80
2021/08/11 11:23:42;;;;;;;9.57;8.75;;;;;;;29.29;49.85;100251.94;6038796;23;20403;-80
2021/08/11 11:26:10;;;;;;;9.20;8.27;;;;;;;29.69;49.78;100245.06;6039862;23;20070;-80
2021/08/11 11:29:06;;;;;;;8.35;7.50;;;;;;;30.06;48.11;100255.63;6038218;23;20038;-80
2021/08/11 11:31:53;;;;;;;7.38;6.65;;;;;;;30.49;48.57;100251.78;6038560;23;20511;-80